Have a Safe July 4th! 

Flight Track Log - Related Links

Times and Time Zones

All times are in EDT time to prevent confusion due to time zone crossing. See the SWA2975 flight status page for this flight to view local times or setup timezone preferences in your user account.

Time Position Orientation Groundspeed Altitude Reporting Facility
EDT Latitude Longitude Course Direction KTS MPH feet Rate Location/Type
Sun 06:29:16 PM 40.8153 -111.9792 353° North 182 209 5,400  Level Salt Lake Center
Sun 06:30:11 PM 40.8664 -111.9875 353° North 195 224 6,600 1,453 Climbing Salt Lake Center
Sun 06:30:51 PM 40.9119 -111.9908 357° North 235 270 7,700 2,118 Climbing Salt Lake Center
Sun 06:31:53 PM 40.9864 -112.0006 354° North 263 303 10,200 2,323 Climbing Salt Lake Center
Sun 06:32:55 PM 41.0475 -111.9594 27° Northeast 280 322 12,500 1,902 Climbing Salt Lake Center
Sun 06:33:56 PM 41.0475 -111.8494 90° East 296 341 14,100 1,659 Climbing Salt Lake Center
Sun 06:34:58 PM 41.0483 -111.7136 89° East 346 398 15,900 1,946 Climbing Salt Lake Center
Sun 06:37:01 PM 41.0475 -111.4392 90° East 378 435 20,100 1,978 Climbing Salt Lake Center
Sun 06:38:03 PM 41.0475 -111.2947 90° East 393 452 22,000 1,597 Climbing Salt Lake Center
Sun 06:39:05 PM 41.0489 -111.1469 89° East 401 461 23,400 1,366 Climbing Salt Lake Center
Sun 06:40:06 PM 41.0733 -110.9911 78° East 430 495 24,800 1,467 Climbing Salt Lake Center
Sun 06:42:09 PM 41.1236 -110.6403 79° East 456 525 27,900 1,459 Climbing Salt Lake Center
Sun 06:43:11 PM 41.1456 -110.4808 80° East 460 529 29,300 1,452 Climbing Salt Lake Center
Sun 06:44:13 PM 41.1717 -110.2942 79° East 461 531 30,900 1,366 Climbing Salt Lake Center
Sun 06:45:14 PM 41.1928 -110.1361 80° East 457 526 32,100 1,171 Climbing Salt Lake Center
Sun 06:46:16 PM 41.2147 -109.9775 80° East 457 526 33,300 1,268 Climbing Salt Lake Center
Sun 06:47:17 PM 41.2389 -109.7936 80° East 454 522 34,700 1,268 Climbing Salt Lake Center
Sun 06:48:19 PM 41.2594 -109.6378 80° East 450 518 35,900 927 Climbing Salt Lake Center
Sun 06:49:20 PM 41.2825 -109.4564 80° East 447 514 36,600 537 Climbing Salt Lake Center
Sun 06:50:22 PM 41.3019 -109.3006 81° East 450 518 37,000 195 Climbing Salt Lake Center
Sun 06:51:23 PM 41.3239 -109.1175 81° East 457 526 37,000  Level Salt Lake Center
Sun 06:52:25 PM 41.3456 -108.9633 79° East 454 522 37,000  Level Salt Lake Center
Sun 06:53:26 PM 41.3678 -108.7844 81° East 445 512 37,000  Level Salt Lake Center
Sun 06:54:28 PM 41.3872 -108.6283 81° East 446 513 37,000  Level Salt Lake Center
Sun 06:55:29 PM 41.4100 -108.4467 80° East 448 516 37,000  Level Salt Lake Center
Sun 06:56:31 PM 41.4278 -108.2900 81° East 449 517 37,000  Level Salt Lake Center
Sun 06:57:32 PM 41.4492 -108.1094 81° East 443 510 37,000  Level Salt Lake Center
Sun 06:58:34 PM 41.4678 -107.9553 81° East 445 512 37,000  Level Salt Lake Center
Sun 06:59:35 PM 41.4850 -107.8008 81° East 444 511 37,000  Level Salt Lake Center
Sun 07:00:37 PM 41.5056 -107.6200 81° East 444 511 37,000  Level Salt Lake Center
Sun 07:01:38 PM 41.5225 -107.4644 82° East 446 513 37,000  Level Salt Lake Center
Sun 07:02:40 PM 41.5433 -107.2819 81° East 446 513 37,000  Level Salt Lake Center
Sun 07:03:41 PM 41.5600 -107.1256 82° East 447 514 37,000  Level Salt Lake Center
Sun 07:04:43 PM 41.5758 -106.9689 82° East 446 513 37,000  Level Salt Lake Center
Sun 07:05:44 PM 41.5956 -106.7861 82° East 447 514 37,000  Level Salt Lake Center
Sun 07:06:46 PM 41.6128 -106.6208 82° East 448 516 37,000  Level Salt Lake Center
Sun 07:07:48 PM 41.6292 -106.4625 82° East 450 518 37,000  Level Salt Lake Center
Sun 07:08:49 PM 41.6464 -106.2769 83° East 452 520 37,000  Level Salt Lake Center
Sun 07:10:17 PM 41.6728 -106.0397 81° East 451 519 37,000  Level Denver Center
Sun 07:11:19 PM 41.6761 -105.8781 88° East 453 521 37,000  Level Denver Center
Sun 07:12:20 PM 41.6736 -105.6878 91° East 458 527 37,000  Level Denver Center
Sun 07:13:22 PM 41.6711 -105.5236 91° East 460 529 37,000  Level Denver Center
Sun 07:14:24 PM 41.6686 -105.3317 91° East 465 535 37,000  Level Denver Center
Sun 07:15:26 PM 41.6678 -105.1681 90° East 462 532 37,000  Level Denver Center
Sun 07:16:27 PM 41.6647 -104.9706 91° East 471 542 37,000  Level Denver Center
Sun 07:17:29 PM 41.6619 -104.8033 91° East 472 543 37,000  Level Denver Center
Sun 07:18:31 PM 41.6581 -104.6117 91° East 465 535 37,000  Level Denver Center
Sun 07:19:33 PM 41.6550 -104.4444 91° East 470 541 37,000  Level Denver Center
Sun 07:20:35 PM 41.6517 -104.2489 91° East 473 544 37,000  Level Denver Center
Sun 07:21:37 PM 41.6481 -104.0831 92° East 469 540 37,000  Level Denver Center
Sun 07:22:38 PM 41.6431 -103.8881 92° East 471 542 37,000  Level Denver Center
Sun 07:23:40 PM 41.6394 -103.7214 92° East 470 541 37,000  Level Denver Center
Sun 07:24:42 PM 41.6336 -103.5550 93° East 471 542 37,000  Level Denver Center
Sun 07:25:44 PM 41.6297 -103.3600 91° East 470 541 37,000  Level Denver Center
Sun 07:26:46 PM 41.6244 -103.1947 92° East 468 539 37,000  Level Denver Center
Sun 07:27:48 PM 41.6178 -103.0008 93° East 468 539 37,000  Level Denver Center
Sun 07:28:50 PM 41.6122 -102.8353 93° East 467 537 37,000  Level Denver Center
Sun 07:29:52 PM 41.6053 -102.6417 93° East 469 540 37,000  Level Denver Center
Sun 07:30:54 PM 41.6003 -102.4622 92° East 465 535 37,000  Level Denver Center
Sun 07:31:55 PM 41.5936 -102.2961 93° East 468 539 37,000  Level Denver Center
Sun 07:32:57 PM 41.5875 -102.1014 92° East 470 541 37,000  Level Denver Center
Sun 07:33:59 PM 41.5792 -101.9350 94° East 470 541 37,000  Level Denver Center
Sun 07:35:01 PM 41.5728 -101.7672 93° East 471 542 37,000  Level Denver Center
Sun 07:36:03 PM 41.5636 -101.5711 94° East 474 545 37,000  Level Denver Center
Sun 07:37:05 PM 41.5572 -101.4036 93° East 472 543 37,000  Level Denver Center
Sun 07:38:07 PM 41.5469 -101.2081 94° East 472 543 37,000  Level Denver Center
Sun 07:39:09 PM 41.5389 -101.0400 94° East 471 542 37,000  Level Denver Center
Sun 07:40:11 PM 41.5308 -100.8444 93° East 472 543 37,000  Level Denver Center
Sun 07:41:13 PM 41.5217 -100.6783 94° East 468 539 37,000  Level Denver Center
Sun 07:42:14 PM 41.5128 -100.5106 94° East 470 541 37,000  Level Denver Center
Sun 07:43:16 PM 41.5011 -100.3156 95° East 470 541 37,000  Level Denver Center
Sun 07:44:18 PM 41.5022 -100.1483 89° East 470 541 37,000  Level Denver Center
Sun 07:45:20 PM 41.5061 -99.9522 88° East 472 543 37,000  Level Denver Center
Sun 07:46:22 PM 41.5075 -99.7844 89° East 472 543 37,000  Level Denver Center
Sun 07:47:24 PM 41.5086 -99.6114 89° East 472 543 37,000  Level Denver Center
Sun 07:48:26 PM 41.5103 -99.4369 89° East 470 541 37,000  Level Denver Center
Sun 07:49:28 PM 41.5119 -99.2264 89° East 470 541 37,000  Level Denver Center
Sun 07:51:04 PM 41.5117 -98.9558 90° East 467 537 37,000  Level Minneapolis Center
Sun 07:52:05 PM 41.5008 -98.7833 95° East 471 542 37,000  Level Minneapolis Center
Sun 07:53:07 PM 41.4344 -98.6244 119° Southeast 495 570 37,000  Level Minneapolis Center
Sun 07:54:09 PM 41.3256 -98.5075 141° Southeast 507 583 37,000  Level Minneapolis Center
Sun 07:55:11 PM 41.1903 -98.3992 149° Southeast 511 588 37,000  Level Minneapolis Center
Sun 07:56:12 PM 41.0694 -98.2981 148° Southeast 509 586 37,000  Level Minneapolis Center
Sun 07:57:14 PM 40.9486 -98.1972 148° Southeast 509 586 37,000  Level Minneapolis Center
Sun 07:58:16 PM 40.8281 -98.0986 148° Southeast 508 585 37,000  Level Minneapolis Center
Sun 07:59:17 PM 40.7072 -97.9986 148° Southeast 509 586 37,000  Level Minneapolis Center
Sun 08:00:18 PM 40.5872 -97.8986 148° Southeast 510 587 37,000  Level Minneapolis Center
Sun 08:01:20 PM 40.4667 -97.8008 148° Southeast 509 586 37,000  Level Minneapolis Center
Sun 08:03:23 PM 40.2794 -97.5206 131° Southeast 476 548 37,000  Level Minneapolis Center
Sun 08:04:25 PM 40.3031 -97.3606 79° East 451 519 37,000  Level Minneapolis Center
Sun 08:05:27 PM 40.3561 -97.2142 65° Northeast 428 493 37,000  Level Minneapolis Center
Sun 08:06:28 PM 40.4419 -97.1217 39° Northeast 405 466 37,000  Level Minneapolis Center
Sun 08:07:30 PM 40.5269 -97.0292 40° Northeast 415 478 37,000  Level Minneapolis Center
Sun 08:08:32 PM 40.5428 -96.8653 83° East 452 520 37,000  Level Minneapolis Center
Sun 08:09:45 PM 40.5622 -96.7028 81° East 453 521 37,000  Level Minneapolis Center
Sun 08:10:47 PM 40.5853 -96.5072 81° East 452 520 37,000  Level Minneapolis Center
Sun 08:11:49 PM 40.6078 -96.3122 81° East 452 520 37,000  Level Minneapolis Center
Sun 08:12:51 PM 40.6256 -96.1492 82° East 452 520 37,000  Level Minneapolis Center
Sun 08:13:52 PM 40.6433 -95.9883 82° East 449 517 37,000  Level Minneapolis Center
Sun 08:14:54 PM 40.6608 -95.8253 82° East 451 519 37,000  Level Minneapolis Center
Sun 08:15:55 PM 40.6781 -95.6633 82° East 450 518 37,000  Level Minneapolis Center
Sun 08:16:57 PM 40.6922 -95.5322 82° East 452 520 37,000  Level Minneapolis Center
Sun 08:17:58 PM 40.7122 -95.3372 82° East 451 519 37,000  Level Minneapolis Center
Sun 08:19:00 PM 40.7322 -95.1450 82° East 446 513 37,000  Level Minneapolis Center
Sun 08:20:02 PM 40.7486 -94.9847 82° East 444 511 37,000  Level Minneapolis Center
Sun 08:21:03 PM 40.7653 -94.8250 82° East 442 509 37,000  Level Minneapolis Center
Sun 08:22:04 PM 40.7806 -94.6622 83° East 445 512 37,000  Level Minneapolis Center
Sun 08:23:06 PM 40.7958 -94.4956 83° East 446 513 37,000  Level Minneapolis Center
Sun 08:24:07 PM 40.8133 -94.3322 82° East 450 518 37,000  Level Minneapolis Center
Sun 08:25:09 PM 40.8281 -94.1700 83° East 450 518 37,000  Level Minneapolis Center
Sun 08:26:10 PM 40.8411 -94.0083 84° East 448 516 37,000  Level Minneapolis Center
Sun 08:27:12 PM 40.8561 -93.8444 83° East 449 517 37,000  Level Minneapolis Center
Sun 08:28:13 PM 40.8756 -93.6461 83° East 453 521 37,000  Level Minneapolis Center
Sun 08:29:15 PM 40.8889 -93.4808 84° East 455 524 37,000  Level Minneapolis Center
Sun 08:30:16 PM 40.9036 -93.3156 83° East 455 524 37,000  Level Minneapolis Center
Sun 08:31:18 PM 40.9172 -93.1506 84° East 455 524 37,000  Level Minneapolis Center
Sun 08:32:32 PM 40.9314 -92.9844 84° East 456 525 37,000  Level Minneapolis Center
Sun 08:33:31 PM 40.9464 -92.7850 84° East 455 524 37,000 -99 Level Chicago Center
Sun 08:34:33 PM 40.9606 -92.6189 84° East 456 525 36,800 -581 Descending Chicago Center
Sun 08:35:35 PM 40.9742 -92.4564 84° East 449 517 35,800 -1,016 Descending Chicago Center
Sun 08:36:37 PM 40.9883 -92.2589 85° East 450 518 34,700 -1,065 Descending Chicago Center
Sun 08:37:39 PM 41.0000 -92.0986 84° East 444 511 33,600 -1,016 Descending Chicago Center
Sun 08:38:41 PM 41.0128 -91.9403 84° East 436 502 32,600 -976 Descending Chicago Center
Sun 08:39:42 PM 41.0244 -91.7847 84° East 429 494 31,600 -780 Descending Chicago Center
Sun 08:40:44 PM 41.0364 -91.6092 85° East 424 488 31,000 -290 Descending Chicago Center
Sun 08:41:46 PM 41.0475 -91.4553 84° East 421 484 31,000  Level Chicago Center
Sun 08:42:48 PM 41.0569 -91.2994 85° East 424 488 31,000 -339 Level Chicago Center
Sun 08:43:50 PM 41.0669 -91.1483 85° East 414 476 30,300 -1,415 Descending Chicago Center
Sun 08:44:51 PM 41.0778 -91.0031 84° East 399 459 28,100 -1,854 Descending Chicago Center
Sun 08:45:53 PM 41.0872 -90.8606 85° East 391 450 26,500 -1,306 Descending Chicago Center
Sun 08:46:55 PM 41.0944 -90.7211 86° East 382 440 25,400 -1,016 Descending Chicago Center
Sun 08:47:57 PM 41.1044 -90.5833 84° East 377 434 24,400 -1,065 Descending Chicago Center
Sun 08:48:59 PM 41.1147 -90.4203 85° East 373 429 23,200 -1,016 Descending Chicago Center
Sun 08:50:01 PM 41.0983 -90.2936 100° East 364 419 22,300 -968 Descending Chicago Center
Sun 08:51:03 PM 41.0197 -90.2064 140° Southeast 367 422 21,200 -1,016 Descending Chicago Center
Sun 08:52:05 PM 40.9353 -90.1153 141° Southeast 364 419 20,200 -968 Descending Chicago Center
Sun 08:53:07 PM 40.8978 -90.0047 114° Southeast 351 404 19,200 -968 Descending Chicago Center
Sun 08:54:09 PM 40.8797 -89.8825 101° East 342 394 18,200 -919 Descending Chicago Center
Sun 08:55:11 PM 40.9036 -89.7642 75° East 343 395 17,300 -968 Descending Chicago Center
Sun 08:56:13 PM 40.9406 -89.6108 72° East 365 420 16,200 -1,016 Descending Chicago Center
Sun 08:57:15 PM 40.9794 -89.4814 68° East 374 430 15,200 -968 Descending Chicago Center
Sun 08:58:17 PM 41.0114 -89.3569 71° East 360 414 14,200 -968 Descending Chicago Center
Sun 08:59:19 PM 41.0533 -89.2389 65° Northeast 355 409 13,200 -581 Descending Chicago Center
Sun 09:00:21 PM 41.1083 -89.1389 54° Northeast 348 400 13,000 -97 Descending Chicago Center
Sun 09:01:23 PM 41.1650 -89.0347 54° Northeast 349 402 13,000 -829 Level Chicago Center
Sun 09:02:24 PM 41.2314 -88.9114 54° Northeast 343 395 11,300 -1,366 Descending Chicago Center
Sun 09:03:26 PM 41.2831 -88.8125 55° Northeast 328 377 10,200 -968 Descending Chicago Center
Sun 09:04:28 PM 41.3283 -88.7286 54° Northeast 283 326 9,300 -1,161 Descending Chicago Center
Sun 09:05:30 PM 41.3722 -88.6450 55° Northeast 276 318 7,800 -1,258 Descending Chicago Center
Sun 09:06:32 PM 41.4136 -88.5664 55° Northeast 263 303 6,700 -871 Descending Chicago Center
Sun 09:07:34 PM 41.4444 -88.4814 64° Northeast 257 296 6,000 -829 Descending Chicago Center
Sun 09:08:35 PM 41.4811 -88.3814 64° Northeast 252 290 5,000 -976 Descending Chicago Center
Sun 09:09:37 PM 41.5117 -88.2989 64° Northeast 249 287 4,000 -484 Descending Chicago Center
Sun 09:10:39 PM 41.5414 -88.2186 64° Northeast 242 278 4,000  Level Chicago Center
Sun 09:11:41 PM 41.5717 -88.1378 63° Northeast 242 278 4,000  Level Chicago Center
Sun 09:12:43 PM 41.6022 -88.0572 63° Northeast 242 278 4,000  Level Chicago Center
Sun 09:13:44 PM 41.6269 -87.9883 64° Northeast 213 245 4,000  Level Chicago Center
Sun 09:14:46 PM 41.6486 -87.9317 63° Northeast 192 221 4,000 -290 Level Chicago Center
Sun 09:15:48 PM 41.6753 -87.8886 50° Northeast 168 193 3,400 -774 Descending Chicago Center
Sun 09:16:50 PM 41.7139 -87.8425 42° Northeast 159 183 2,400 -823 Descending Chicago Center
Sun 09:17:52 PM 41.7408 -87.8083 43° Northeast 148 170 1,700 -726 Descending Chicago Center
Sun 09:18:54 PM 41.7669 -87.7753 43° Northeast 137 158 900 -774 Descending Chicago Center
Sun 09:20:00 PM 41.7833 -87.7500 51° Northeast  Level FlightAware Approximate
Sun 09:27:00 PM 41.7860 -87.7524 51° Northeast  Level Estimated

Login

Don't have an account? Register now (free) for customized features, flight alerts, and more!